sensor_id;sensor_type;location;lat;lon;timestamp;P1;durP1;ratioP1;P2;durP2;ratioP2
38591;SDS011;24356;48.460;11.450;2023-03-14T00:00:36;1.08;;;0.50;;
38591;SDS011;24356;48.460;11.450;2023-03-14T00:03:02;0.63;;;0.52;;
38591;SDS011;24356;48.460;11.450;2023-03-14T00:05:28;1.33;;;0.77;;
38591;SDS011;24356;48.460;11.450;2023-03-14T00:07:53;2.05;;;0.90;;
38591;SDS011;24356;48.460;11.450;2023-03-14T00:10:19;1.05;;;0.80;;
38591;SDS011;24356;48.460;11.450;2023-03-14T00:12:45;0.93;;;0.63;;
38591;SDS011;24356;48.460;11.450;2023-03-14T00:15:11;3.70;;;0.63;;
38591;SDS011;24356;48.460;11.450;2023-03-14T00:17:37;2.35;;;0.77;;
38591;SDS011;24356;48.460;11.450;2023-03-14T00:20:04;1.20;;;0.50;;
38591;SDS011;24356;48.460;11.450;2023-03-14T00:22:37;1.35;;;0.40;;
38591;SDS011;24356;48.460;11.450;2023-03-14T00:25:04;1.05;;;0.60;;
38591;SDS011;24356;48.460;11.450;2023-03-14T00:27:31;0.90;;;0.65;;
38591;SDS011;24356;48.460;11.450;2023-03-14T00:29:57;1.77;;;0.70;;
38591;SDS011;24356;48.460;11.450;2023-03-14T00:32:23;1.70;;;0.60;;
38591;SDS011;24356;48.460;11.450;2023-03-14T00:34:48;1.65;;;0.77;;
38591;SDS011;24356;48.460;11.450;2023-03-14T00:37:14;1.52;;;0.90;;
38591;SDS011;24356;48.460;11.450;2023-03-14T00:39:40;1.02;;;0.93;;
38591;SDS011;24356;48.460;11.450;2023-03-14T00:42:05;1.98;;;0.75;;
38591;SDS011;24356;48.460;11.450;2023-03-14T00:44:31;0.70;;;0.70;;
38591;SDS011;24356;48.460;11.450;2023-03-14T00:46:56;1.38;;;0.90;;
38591;SDS011;24356;48.460;11.450;2023-03-14T00:49:22;1.73;;;0.90;;
38591;SDS011;24356;48.460;11.450;2023-03-14T00:51:48;2.85;;;1.15;;
38591;SDS011;24356;48.460;11.450;2023-03-14T00:54:14;0.80;;;0.57;;
38591;SDS011;24356;48.460;11.450;2023-03-14T00:56:40;0.77;;;0.60;;
38591;SDS011;24356;48.460;11.450;2023-03-14T00:59:05;1.25;;;0.47;;
38591;SDS011;24356;48.460;11.450;2023-03-14T01:01:31;1.70;;;0.70;;
38591;SDS011;24356;48.460;11.450;2023-03-14T01:03:56;0.77;;;0.43;;
38591;SDS011;24356;48.460;11.450;2023-03-14T01:06:26;0.80;;;0.60;;
38591;SDS011;24356;48.460;11.450;2023-03-14T01:08:53;2.00;;;0.55;;
38591;SDS011;24356;48.460;11.450;2023-03-14T01:11:20;2.75;;;0.40;;
38591;SDS011;24356;48.460;11.450;2023-03-14T01:13:48;0.40;;;0.40;;
38591;SDS011;24356;48.460;11.450;2023-03-14T01:16:14;0.50;;;0.30;;
38591;SDS011;24356;48.460;11.450;2023-03-14T01:18:42;0.30;;;0.28;;
38591;SDS011;24356;48.460;11.450;2023-03-14T01:21:10;0.68;;;0.40;;
38591;SDS011;24356;48.460;11.450;2023-03-14T01:23:57;0.50;;;0.32;;
38591;SDS011;24356;48.460;11.450;2023-03-14T01:26:25;1.92;;;0.40;;
38591;SDS011;24356;48.460;11.450;2023-03-14T01:28:53;0.50;;;0.30;;
38591;SDS011;24356;48.460;11.450;2023-03-14T01:31:19;0.77;;;0.40;;
38591;SDS011;24356;48.460;11.450;2023-03-14T01:33:45;0.50;;;0.28;;
38591;SDS011;24356;48.460;11.450;2023-03-14T01:36:11;0.63;;;0.20;;
38591;SDS011;24356;48.460;11.450;2023-03-14T01:38:38;0.30;;;0.30;;
38591;SDS011;24356;48.460;11.450;2023-03-14T01:41:04;0.65;;;0.45;;
38591;SDS011;24356;48.460;11.450;2023-03-14T01:43:31;1.08;;;0.40;;
38591;SDS011;24356;48.460;11.450;2023-03-14T01:51:25;0.57;;;0.30;;
38591;SDS011;24356;48.460;11.450;2023-03-14T01:54:02;1.27;;;0.30;;
38591;SDS011;24356;48.460;11.450;2023-03-14T01:57:11;1.48;;;0.30;;
38591;SDS011;24356;48.460;11.450;2023-03-14T01:59:38;1.13;;;0.30;;
38591;SDS011;24356;48.460;11.450;2023-03-14T02:02:07;0.75;;;0.30;;
38591;SDS011;24356;48.460;11.450;2023-03-14T02:04:37;0.50;;;0.30;;
38591;SDS011;24356;48.460;11.450;2023-03-14T02:09:33;0.30;;;0.22;;
38591;SDS011;24356;48.460;11.450;2023-03-14T02:11:59;0.93;;;0.30;;
38591;SDS011;24356;48.460;11.450;2023-03-14T02:14:28;1.00;;;0.30;;
38591;SDS011;24356;48.460;11.450;2023-03-14T02:16:56;2.25;;;0.38;;
38591;SDS011;24356;48.460;11.450;2023-03-14T02:19:26;1.60;;;0.20;;
38591;SDS011;24356;48.460;11.450;2023-03-14T02:22:15;0.45;;;0.20;;
38591;SDS011;24356;48.460;11.450;2023-03-14T02:27:39;2.55;;;0.20;;
38591;SDS011;24356;48.460;11.450;2023-03-14T02:30:12;1.65;;;0.25;;
38591;SDS011;24356;48.460;11.450;2023-03-14T02:32:41;0.08;;;0.08;;
38591;SDS011;24356;48.460;11.450;2023-03-14T02:35:12;0.10;;;0.10;;
38591;SDS011;24356;48.460;11.450;2023-03-14T02:37:44;0.68;;;0.30;;
38591;SDS011;24356;48.460;11.450;2023-03-14T02:40:24;0.30;;;0.30;;
38591;SDS011;24356;48.460;11.450;2023-03-14T02:42:50;1.08;;;0.30;;
38591;SDS011;24356;48.460;11.450;2023-03-14T02:47:42;1.75;;;0.10;;
38591;SDS011;24356;48.460;11.450;2023-03-14T02:50:12;0.60;;;0.20;;
38591;SDS011;24356;48.460;11.450;2023-03-14T02:52:40;1.55;;;0.25;;
38591;SDS011;24356;48.460;11.450;2023-03-14T02:55:06;0.93;;;0.20;;
38591;SDS011;24356;48.460;11.450;2023-03-14T02:57:33;1.08;;;0.30;;
38591;SDS011;24356;48.460;11.450;2023-03-14T02:59:59;0.30;;;0.30;;
38591;SDS011;24356;48.460;11.450;2023-03-14T03:02:25;0.73;;;0.17;;
38591;SDS011;24356;48.460;11.450;2023-03-14T03:04:52;1.52;;;0.20;;
38591;SDS011;24356;48.460;11.450;2023-03-14T03:07:17;1.45;;;0.17;;
38591;SDS011;24356;48.460;11.450;2023-03-14T03:09:44;0.65;;;0.20;;
38591;SDS011;24356;48.460;11.450;2023-03-14T03:12:09;1.25;;;0.28;;
38591;SDS011;24356;48.460;11.450;2023-03-14T03:14:35;0.35;;;0.32;;
38591;SDS011;24356;48.460;11.450;2023-03-14T03:17:02;0.90;;;0.40;;
38591;SDS011;24356;48.460;11.450;2023-03-14T03:19:31;0.80;;;0.35;;
38591;SDS011;24356;48.460;11.450;2023-03-14T03:21:58;2.78;;;0.45;;
38591;SDS011;24356;48.460;11.450;2023-03-14T03:24:24;1.48;;;0.32;;
38591;SDS011;24356;48.460;11.450;2023-03-14T03:26:50;0.20;;;0.20;;
38591;SDS011;24356;48.460;11.450;2023-03-14T03:29:15;0.93;;;0.35;;
38591;SDS011;24356;48.460;11.450;2023-03-14T03:31:41;1.00;;;0.15;;
38591;SDS011;24356;48.460;11.450;2023-03-14T03:34:07;1.10;;;0.30;;
38591;SDS011;24356;48.460;11.450;2023-03-14T03:36:32;0.68;;;0.38;;
38591;SDS011;24356;48.460;11.450;2023-03-14T03:38:58;0.93;;;0.30;;
38591;SDS011;24356;48.460;11.450;2023-03-14T03:41:24;4.72;;;0.40;;
38591;SDS011;24356;48.460;11.450;2023-03-14T03:43:50;3.50;;;0.35;;
38591;SDS011;24356;48.460;11.450;2023-03-14T03:46:15;0.40;;;0.32;;
38591;SDS011;24356;48.460;11.450;2023-03-14T03:48:41;0.75;;;0.30;;
38591;SDS011;24356;48.460;11.450;2023-03-14T03:51:07;0.30;;;0.30;;
38591;SDS011;24356;48.460;11.450;2023-03-14T03:53:35;0.35;;;0.28;;
38591;SDS011;24356;48.460;11.450;2023-03-14T03:56:01;0.20;;;0.20;;
38591;SDS011;24356;48.460;11.450;2023-03-14T03:58:26;0.47;;;0.20;;
38591;SDS011;24356;48.460;11.450;2023-03-14T04:00:52;0.98;;;0.40;;
38591;SDS011;24356;48.460;11.450;2023-03-14T04:03:17;0.60;;;0.25;;
38591;SDS011;24356;48.460;11.450;2023-03-14T04:05:43;0.10;;;0.10;;
38591;SDS011;24356;48.460;11.450;2023-03-14T04:08:08;0.20;;;0.20;;
38591;SDS011;24356;48.460;11.450;2023-03-14T04:10:34;0.63;;;0.30;;
38591;SDS011;24356;48.460;11.450;2023-03-14T04:13:00;0.90;;;0.20;;
38591;SDS011;24356;48.460;11.450;2023-03-14T04:15:26;0.28;;;0.28;;
38591;SDS011;24356;48.460;11.450;2023-03-14T04:17:56;0.40;;;0.22;;
38591;SDS011;24356;48.460;11.450;2023-03-14T04:20:22;0.05;;;0.05;;
38591;SDS011;24356;48.460;11.450;2023-03-14T04:22:48;0.32;;;0.10;;
38591;SDS011;24356;48.460;11.450;2023-03-14T04:25:13;0.63;;;0.20;;
38591;SDS011;24356;48.460;11.450;2023-03-14T04:27:41;0.15;;;0.15;;
38591;SDS011;24356;48.460;11.450;2023-03-14T04:30:07;0.38;;;0.20;;
38591;SDS011;24356;48.460;11.450;2023-03-14T04:32:33;0.17;;;0.10;;
38591;SDS011;24356;48.460;11.450;2023-03-14T04:34:58;0.32;;;0.10;;
38591;SDS011;24356;48.460;11.450;2023-03-14T04:37:24;0.20;;;0.10;;
38591;SDS011;24356;48.460;11.450;2023-03-14T04:39:50;0.10;;;0.10;;
38591;SDS011;24356;48.460;11.450;2023-03-14T04:42:15;0.55;;;0.10;;
38591;SDS011;24356;48.460;11.450;2023-03-14T04:44:41;0.50;;;0.30;;
38591;SDS011;24356;48.460;11.450;2023-03-14T04:47:08;0.38;;;0.10;;
38591;SDS011;24356;48.460;11.450;2023-03-14T04:49:33;0.68;;;0.20;;
38591;SDS011;24356;48.460;11.450;2023-03-14T04:51:59;0.38;;;0.15;;
38591;SDS011;24356;48.460;11.450;2023-03-14T04:54:24;0.93;;;0.20;;
38591;SDS011;24356;48.460;11.450;2023-03-14T04:56:50;0.98;;;0.30;;
38591;SDS011;24356;48.460;11.450;2023-03-14T04:59:15;0.57;;;0.15;;
38591;SDS011;24356;48.460;11.450;2023-03-14T05:01:41;0.70;;;0.13;;
38591;SDS011;24356;48.460;11.450;2023-03-14T05:04:06;0.20;;;0.10;;
38591;SDS011;24356;48.460;11.450;2023-03-14T05:06:32;0.50;;;0.05;;
38591;SDS011;24356;48.460;11.450;2023-03-14T05:08:58;0.43;;;0.10;;
38591;SDS011;24356;48.460;11.450;2023-03-14T05:11:23;0.10;;;0.10;;
38591;SDS011;24356;48.460;11.450;2023-03-14T05:13:49;0.25;;;0.13;;
38591;SDS011;24356;48.460;11.450;2023-03-14T05:16:14;0.32;;;0.10;;
38591;SDS011;24356;48.460;11.450;2023-03-14T05:18:40;0.22;;;0.22;;
38591;SDS011;24356;48.460;11.450;2023-03-14T05:21:05;0.10;;;0.10;;
38591;SDS011;24356;48.460;11.450;2023-03-14T05:23:31;0.20;;;0.20;;
38591;SDS011;24356;48.460;11.450;2023-03-14T05:25:56;0.20;;;0.10;;
38591;SDS011;24356;48.460;11.450;2023-03-14T05:28:22;0.88;;;0.25;;
38591;SDS011;24356;48.460;11.450;2023-03-14T05:30:48;0.30;;;0.10;;
38591;SDS011;24356;48.460;11.450;2023-03-14T05:33:13;0.85;;;0.20;;
38591;SDS011;24356;48.460;11.450;2023-03-14T05:35:39;0.10;;;0.10;;
38591;SDS011;24356;48.460;11.450;2023-03-14T05:38:04;0.30;;;0.20;;
38591;SDS011;24356;48.460;11.450;2023-03-14T05:40:30;0.50;;;0.20;;
38591;SDS011;24356;48.460;11.450;2023-03-14T05:42:55;0.47;;;0.10;;
38591;SDS011;24356;48.460;11.450;2023-03-14T05:45:21;0.55;;;0.10;;
38591;SDS011;24356;48.460;11.450;2023-03-14T05:47:46;0.20;;;0.13;;
38591;SDS011;24356;48.460;11.450;2023-03-14T05:50:12;0.17;;;0.10;;
38591;SDS011;24356;48.460;11.450;2023-03-14T05:52:37;0.30;;;0.20;;
38591;SDS011;24356;48.460;11.450;2023-03-14T05:55:03;0.65;;;0.20;;
38591;SDS011;24356;48.460;11.450;2023-03-14T05:57:29;0.57;;;0.10;;
38591;SDS011;24356;48.460;11.450;2023-03-14T05:59:55;0.98;;;0.13;;
38591;SDS011;24356;48.460;11.450;2023-03-14T06:02:20;0.17;;;0.10;;
38591;SDS011;24356;48.460;11.450;2023-03-14T06:04:46;0.95;;;0.20;;
38591;SDS011;24356;48.460;11.450;2023-03-14T06:07:11;0.32;;;0.20;;
38591;SDS011;24356;48.460;11.450;2023-03-14T06:09:37;0.85;;;0.20;;
38591;SDS011;24356;48.460;11.450;2023-03-14T06:12:04;0.20;;;0.17;;
38591;SDS011;24356;48.460;11.450;2023-03-14T06:14:30;1.17;;;0.30;;
38591;SDS011;24356;48.460;11.450;2023-03-14T06:16:56;1.23;;;0.20;;
38591;SDS011;24356;48.460;11.450;2023-03-14T06:19:23;1.38;;;0.20;;
38591;SDS011;24356;48.460;11.450;2023-03-14T06:21:49;0.68;;;0.40;;
38591;SDS011;24356;48.460;11.450;2023-03-14T06:24:16;0.20;;;0.20;;
38591;SDS011;24356;48.460;11.450;2023-03-14T06:26:41;1.75;;;0.60;;
38591;SDS011;24356;48.460;11.450;2023-03-14T06:29:07;0.50;;;0.50;;
38591;SDS011;24356;48.460;11.450;2023-03-14T06:31:33;1.23;;;0.75;;
38591;SDS011;24356;48.460;11.450;2023-03-14T06:33:58;0.20;;;0.20;;
38591;SDS011;24356;48.460;11.450;2023-03-14T06:36:24;1.65;;;0.20;;
38591;SDS011;24356;48.460;11.450;2023-03-14T06:38:50;0.43;;;0.28;;
38591;SDS011;24356;48.460;11.450;2023-03-14T06:41:15;1.85;;;0.55;;
38591;SDS011;24356;48.460;11.450;2023-03-14T06:43:41;24.15;;;9.10;;
38591;SDS011;24356;48.460;11.450;2023-03-14T06:46:07;20.08;;;9.63;;
38591;SDS011;24356;48.460;11.450;2023-03-14T06:48:32;11.75;;;5.57;;
38591;SDS011;24356;48.460;11.450;2023-03-14T06:50:58;1.50;;;0.98;;
38591;SDS011;24356;48.460;11.450;2023-03-14T06:53:24;1.95;;;0.50;;
38591;SDS011;24356;48.460;11.450;2023-03-14T06:55:49;0.45;;;0.30;;
38591;SDS011;24356;48.460;11.450;2023-03-14T06:58:15;2.70;;;1.38;;
38591;SDS011;24356;48.460;11.450;2023-03-14T07:00:41;0.75;;;0.60;;
38591;SDS011;24356;48.460;11.450;2023-03-14T07:03:07;1.65;;;1.48;;
38591;SDS011;24356;48.460;11.450;2023-03-14T07:05:32;1.15;;;0.80;;
38591;SDS011;24356;48.460;11.450;2023-03-14T07:07:58;1.17;;;0.80;;
38591;SDS011;24356;48.460;11.450;2023-03-14T07:10:24;0.28;;;0.28;;
38591;SDS011;24356;48.460;11.450;2023-03-14T07:12:49;1.55;;;0.40;;
38591;SDS011;24356;48.460;11.450;2023-03-14T07:15:16;1.05;;;0.40;;
38591;SDS011;24356;48.460;11.450;2023-03-14T07:17:41;1.30;;;0.30;;
38591;SDS011;24356;48.460;11.450;2023-03-14T07:20:07;0.65;;;0.30;;
38591;SDS011;24356;48.460;11.450;2023-03-14T07:22:34;0.28;;;0.20;;
38591;SDS011;24356;48.460;11.450;2023-03-14T07:24:59;0.47;;;0.30;;
38591;SDS011;24356;48.460;11.450;2023-03-14T07:27:25;0.15;;;0.10;;
38591;SDS011;24356;48.460;11.450;2023-03-14T07:29:50;0.10;;;0.10;;
38591;SDS011;24356;48.460;11.450;2023-03-14T07:32:16;0.30;;;0.30;;
38591;SDS011;24356;48.460;11.450;2023-03-14T07:34:41;0.30;;;0.30;;
38591;SDS011;24356;48.460;11.450;2023-03-14T07:37:07;0.22;;;0.15;;
38591;SDS011;24356;48.460;11.450;2023-03-14T07:39:33;0.40;;;0.40;;
38591;SDS011;24356;48.460;11.450;2023-03-14T07:41:59;0.30;;;0.30;;
38591;SDS011;24356;48.460;11.450;2023-03-14T07:44:25;0.93;;;0.20;;
38591;SDS011;24356;48.460;11.450;2023-03-14T07:46:51;0.52;;;0.10;;
38591;SDS011;24356;48.460;11.450;2023-03-14T07:49:16;1.42;;;0.17;;
38591;SDS011;24356;48.460;11.450;2023-03-14T07:51:42;0.50;;;0.50;;
38591;SDS011;24356;48.460;11.450;2023-03-14T07:54:09;1.40;;;0.30;;
38591;SDS011;24356;48.460;11.450;2023-03-14T07:56:35;1.38;;;1.25;;
38591;SDS011;24356;48.460;11.450;2023-03-14T07:59:00;0.47;;;0.38;;
38591;SDS011;24356;48.460;11.450;2023-03-14T08:01:26;0.10;;;0.10;;
38591;SDS011;24356;48.460;11.450;2023-03-14T08:03:52;0.50;;;0.30;;
38591;SDS011;24356;48.460;11.450;2023-03-14T08:06:17;0.45;;;0.35;;
38591;SDS011;24356;48.460;11.450;2023-03-14T08:08:43;1.60;;;0.65;;
38591;SDS011;24356;48.460;11.450;2023-03-14T08:11:09;0.57;;;0.40;;
38591;SDS011;24356;48.460;11.450;2023-03-14T08:13:35;0.30;;;0.20;;
38591;SDS011;24356;48.460;11.450;2023-03-14T08:16:01;0.20;;;0.13;;
38591;SDS011;24356;48.460;11.450;2023-03-14T08:18:27;0.50;;;0.20;;
38591;SDS011;24356;48.460;11.450;2023-03-14T08:20:52;0.85;;;0.60;;
38591;SDS011;24356;48.460;11.450;2023-03-14T08:23:18;2.10;;;1.20;;
38591;SDS011;24356;48.460;11.450;2023-03-14T08:25:43;0.98;;;0.73;;
38591;SDS011;24356;48.460;11.450;2023-03-14T08:28:09;13.75;;;5.80;;
38591;SDS011;24356;48.460;11.450;2023-03-14T08:30:35;9.48;;;4.43;;
38591;SDS011;24356;48.460;11.450;2023-03-14T08:33:00;4.05;;;1.83;;
38591;SDS011;24356;48.460;11.450;2023-03-14T08:35:26;2.50;;;0.80;;
38591;SDS011;24356;48.460;11.450;2023-03-14T08:37:52;1.33;;;0.85;;
38591;SDS011;24356;48.460;11.450;2023-03-14T08:40:18;0.68;;;0.60;;
38591;SDS011;24356;48.460;11.450;2023-03-14T08:42:44;1.05;;;0.88;;
38591;SDS011;24356;48.460;11.450;2023-03-14T08:45:14;1.30;;;0.30;;
38591;SDS011;24356;48.460;11.450;2023-03-14T08:47:41;0.75;;;0.38;;
38591;SDS011;24356;48.460;11.450;2023-03-14T08:50:08;0.95;;;0.32;;
38591;SDS011;24356;48.460;11.450;2023-03-14T08:52:35;0.63;;;0.20;;
38591;SDS011;24356;48.460;11.450;2023-03-14T08:55:02;1.35;;;0.50;;
38591;SDS011;24356;48.460;11.450;2023-03-14T08:57:28;0.90;;;0.40;;
38591;SDS011;24356;48.460;11.450;2023-03-14T08:59:54;0.40;;;0.40;;
38591;SDS011;24356;48.460;11.450;2023-03-14T09:02:21;0.40;;;0.30;;
38591;SDS011;24356;48.460;11.450;2023-03-14T09:04:47;0.30;;;0.30;;
38591;SDS011;24356;48.460;11.450;2023-03-14T09:07:12;0.17;;;0.10;;
38591;SDS011;24356;48.460;11.450;2023-03-14T09:09:38;1.33;;;0.45;;
38591;SDS011;24356;48.460;11.450;2023-03-14T09:12:03;0.20;;;0.20;;
38591;SDS011;24356;48.460;11.450;2023-03-14T09:14:30;0.90;;;0.40;;
38591;SDS011;24356;48.460;11.450;2023-03-14T09:16:56;0.75;;;0.35;;
38591;SDS011;24356;48.460;11.450;2023-03-14T09:19:22;1.65;;;0.40;;
38591;SDS011;24356;48.460;11.450;2023-03-14T09:21:48;0.93;;;0.60;;
38591;SDS011;24356;48.460;11.450;2023-03-14T09:24:13;0.98;;;0.65;;
38591;SDS011;24356;48.460;11.450;2023-03-14T09:26:39;0.82;;;0.30;;
38591;SDS011;24356;48.460;11.450;2023-03-14T09:29:05;0.40;;;0.30;;
38591;SDS011;24356;48.460;11.450;2023-03-14T09:31:30;1.67;;;0.50;;
38591;SDS011;24356;48.460;11.450;2023-03-14T09:33:56;0.20;;;0.15;;
38591;SDS011;24356;48.460;11.450;2023-03-14T09:36:22;0.35;;;0.20;;
38591;SDS011;24356;48.460;11.450;2023-03-14T09:38:47;0.93;;;0.25;;
38591;SDS011;24356;48.460;11.450;2023-03-14T09:41:26;2.38;;;0.40;;
38591;SDS011;24356;48.460;11.450;2023-03-14T09:44:03;0.10;;;0.10;;
38591;SDS011;24356;48.460;11.450;2023-03-14T09:46:46;0.70;;;0.28;;
38591;SDS011;24356;48.460;11.450;2023-03-14T09:49:37;0.40;;;0.10;;
38591;SDS011;24356;48.460;11.450;2023-03-14T09:52:05;0.25;;;0.20;;
38591;SDS011;24356;48.460;11.450;2023-03-14T09:54:45;0.60;;;0.30;;
38591;SDS011;24356;48.460;11.450;2023-03-14T09:57:15;0.25;;;0.20;;
38591;SDS011;24356;48.460;11.450;2023-03-14T09:59:46;0.47;;;0.28;;
38591;SDS011;24356;48.460;11.450;2023-03-14T10:02:17;2.72;;;0.30;;
38591;SDS011;24356;48.460;11.450;2023-03-14T10:04:49;2.10;;;0.30;;
38591;SDS011;24356;48.460;11.450;2023-03-14T10:07:17;0.55;;;0.22;;
38591;SDS011;24356;48.460;11.450;2023-03-14T10:09:50;1.67;;;0.20;;
38591;SDS011;24356;48.460;11.450;2023-03-14T10:12:17;1.00;;;0.40;;
38591;SDS011;24356;48.460;11.450;2023-03-14T10:14:47;0.32;;;0.17;;
38591;SDS011;24356;48.460;11.450;2023-03-14T10:17:15;0.22;;;0.20;;
38591;SDS011;24356;48.460;11.450;2023-03-14T10:19:53;0.65;;;0.32;;
38591;SDS011;24356;48.460;11.450;2023-03-14T10:22:24;0.47;;;0.20;;
38591;SDS011;24356;48.460;11.450;2023-03-14T10:25:00;0.52;;;0.20;;
38591;SDS011;24356;48.460;11.450;2023-03-14T10:27:34;0.38;;;0.28;;
38591;SDS011;24356;48.460;11.450;2023-03-14T10:30:01;1.67;;;0.30;;
38591;SDS011;24356;48.460;11.450;2023-03-14T10:32:35;2.47;;;0.30;;
38591;SDS011;24356;48.460;11.450;2023-03-14T10:35:24;1.83;;;1.60;;
38591;SDS011;24356;48.460;11.450;2023-03-14T10:37:53;2.03;;;1.40;;
38591;SDS011;24356;48.460;11.450;2023-03-14T10:40:24;1.45;;;0.43;;
38591;SDS011;24356;48.460;11.450;2023-03-14T10:42:53;0.57;;;0.30;;
38591;SDS011;24356;48.460;11.450;2023-03-14T10:48:15;1.48;;;0.30;;
38591;SDS011;24356;48.460;11.450;2023-03-14T10:51:04;0.70;;;0.38;;
38591;SDS011;24356;48.460;11.450;2023-03-14T10:53:33;1.65;;;0.20;;
38591;SDS011;24356;48.460;11.450;2023-03-14T10:56:20;0.65;;;0.28;;
38591;SDS011;24356;48.460;11.450;2023-03-14T10:58:48;0.82;;;0.25;;
38591;SDS011;24356;48.460;11.450;2023-03-14T11:01:26;0.55;;;0.30;;
38591;SDS011;24356;48.460;11.450;2023-03-14T11:09:33;1.02;;;0.28;;
38591;SDS011;24356;48.460;11.450;2023-03-14T11:12:18;0.63;;;0.20;;
38591;SDS011;24356;48.460;11.450;2023-03-14T11:15:25;0.80;;;0.20;;
38591;SDS011;24356;48.460;11.450;2023-03-14T11:21:07;0.43;;;0.22;;
38591;SDS011;24356;48.460;11.450;2023-03-14T11:23:41;0.20;;;0.20;;
38591;SDS011;24356;48.460;11.450;2023-03-14T11:26:26;1.77;;;0.75;;
38591;SDS011;24356;48.460;11.450;2023-03-14T11:29:12;2.53;;;0.60;;
38591;SDS011;24356;48.460;11.450;2023-03-14T11:31:46;0.68;;;0.35;;
38591;SDS011;24356;48.460;11.450;2023-03-14T11:36:59;0.73;;;0.38;;
38591;SDS011;24356;48.460;11.450;2023-03-14T11:39:37;0.10;;;0.10;;
38591;SDS011;24356;48.460;11.450;2023-03-14T11:44:37;1.02;;;0.17;;
38591;SDS011;24356;48.460;11.450;2023-03-14T11:52:32;1.00;;;0.00;;
38591;SDS011;24356;48.460;11.450;2023-03-14T11:55:19;3.33;;;0.20;;
38591;SDS011;24356;48.460;11.450;2023-03-14T11:57:51;0.40;;;0.20;;
38591;SDS011;24356;48.460;11.450;2023-03-14T12:00:22;0.20;;;0.10;;
38591;SDS011;24356;48.460;11.450;2023-03-14T12:10:40;0.32;;;0.20;;
38591;SDS011;24356;48.460;11.450;2023-03-14T12:13:16;0.45;;;0.10;;
38591;SDS011;24356;48.460;11.450;2023-03-14T12:15:55;0.50;;;0.10;;
38591;SDS011;24356;48.460;11.450;2023-03-14T12:21:17;0.20;;;0.10;;
38591;SDS011;24356;48.460;11.450;2023-03-14T12:23:44;0.45;;;0.30;;
38591;SDS011;24356;48.460;11.450;2023-03-14T12:26:19;0.60;;;0.20;;
38591;SDS011;24356;48.460;11.450;2023-03-14T12:42:08;1.00;;;0.40;;
38591;SDS011;24356;48.460;11.450;2023-03-14T12:44:48;1.55;;;0.15;;
38591;SDS011;24356;48.460;11.450;2023-03-14T12:49:43;1.00;;;0.17;;
38591;SDS011;24356;48.460;11.450;2023-03-14T12:52:14;0.38;;;0.13;;
38591;SDS011;24356;48.460;11.450;2023-03-14T12:54:52;0.50;;;0.10;;
38591;SDS011;24356;48.460;11.450;2023-03-14T13:02:45;0.20;;;0.20;;
38591;SDS011;24356;48.460;11.450;2023-03-14T13:15:57;0.93;;;0.28;;
38591;SDS011;24356;48.460;11.450;2023-03-14T13:18:12;0.52;;;0.10;;
38591;SDS011;24356;48.460;11.450;2023-03-14T13:20:40;0.10;;;0.10;;
38591;SDS011;24356;48.460;11.450;2023-03-14T13:23:23;0.20;;;0.10;;
38591;SDS011;24356;48.460;11.450;2023-03-14T13:25:51;1.20;;;0.22;;
38591;SDS011;24356;48.460;11.450;2023-03-14T13:28:17;0.10;;;0.10;;
38591;SDS011;24356;48.460;11.450;2023-03-14T13:30:44;0.68;;;0.20;;
38591;SDS011;24356;48.460;11.450;2023-03-14T13:33:13;1.08;;;0.47;;
38591;SDS011;24356;48.460;11.450;2023-03-14T13:35:44;0.50;;;0.30;;
38591;SDS011;24356;48.460;11.450;2023-03-14T13:38:15;0.10;;;0.10;;
38591;SDS011;24356;48.460;11.450;2023-03-14T13:40:46;2.10;;;0.20;;
38591;SDS011;24356;48.460;11.450;2023-03-14T13:43:14;1.30;;;0.10;;
38591;SDS011;24356;48.460;11.450;2023-03-14T13:45:44;0.10;;;0.10;;
38591;SDS011;24356;48.460;11.450;2023-03-14T13:48:15;0.65;;;0.10;;
38591;SDS011;24356;48.460;11.450;2023-03-14T13:50:45;1.88;;;0.30;;
38591;SDS011;24356;48.460;11.450;2023-03-14T13:53:16;0.28;;;0.20;;
38591;SDS011;24356;48.460;11.450;2023-03-14T13:55:41;0.70;;;0.22;;
38591;SDS011;24356;48.460;11.450;2023-03-14T13:58:11;0.10;;;0.10;;
38591;SDS011;24356;48.460;11.450;2023-03-14T14:00:52;0.40;;;0.10;;
38591;SDS011;24356;48.460;11.450;2023-03-14T14:03:24;1.88;;;0.20;;
38591;SDS011;24356;48.460;11.450;2023-03-14T14:05:51;3.03;;;0.10;;
38591;SDS011;24356;48.460;11.450;2023-03-14T14:08:16;0.63;;;0.10;;
38591;SDS011;24356;48.460;11.450;2023-03-14T14:10:42;0.13;;;0.13;;
38591;SDS011;24356;48.460;11.450;2023-03-14T14:13:08;0.28;;;0.10;;
38591;SDS011;24356;48.460;11.450;2023-03-14T14:15:41;0.75;;;0.13;;
38591;SDS011;24356;48.460;11.450;2023-03-14T14:18:12;0.90;;;0.20;;
38591;SDS011;24356;48.460;11.450;2023-03-14T14:20:41;0.00;;;0.00;;
38591;SDS011;24356;48.460;11.450;2023-03-14T14:23:16;1.02;;;0.30;;
38591;SDS011;24356;48.460;11.450;2023-03-14T14:25:49;0.32;;;0.28;;
38591;SDS011;24356;48.460;11.450;2023-03-14T14:28:26;0.93;;;0.40;;
38591;SDS011;24356;48.460;11.450;2023-03-14T14:31:01;0.40;;;0.40;;
38591;SDS011;24356;48.460;11.450;2023-03-14T14:33:45;0.38;;;0.38;;
38591;SDS011;24356;48.460;11.450;2023-03-14T14:36:20;0.65;;;0.40;;
38591;SDS011;24356;48.460;11.450;2023-03-14T14:38:52;0.60;;;0.60;;
38591;SDS011;24356;48.460;11.450;2023-03-14T14:41:22;3.00;;;0.90;;
38591;SDS011;24356;48.460;11.450;2023-03-14T14:43:52;0.80;;;0.80;;
38591;SDS011;24356;48.460;11.450;2023-03-14T14:46:18;1.38;;;1.23;;
38591;SDS011;24356;48.460;11.450;2023-03-14T14:48:44;0.40;;;0.40;;
38591;SDS011;24356;48.460;11.450;2023-03-14T14:51:21;0.73;;;0.60;;
38591;SDS011;24356;48.460;11.450;2023-03-14T14:53:48;1.48;;;0.65;;
38591;SDS011;24356;48.460;11.450;2023-03-14T14:56:17;0.30;;;0.30;;
38591;SDS011;24356;48.460;11.450;2023-03-14T14:58:47;0.30;;;0.20;;
38591;SDS011;24356;48.460;11.450;2023-03-14T15:01:21;0.22;;;0.20;;
38591;SDS011;24356;48.460;11.450;2023-03-14T15:03:50;0.30;;;0.30;;
38591;SDS011;24356;48.460;11.450;2023-03-14T15:06:17;0.10;;;0.10;;
38591;SDS011;24356;48.460;11.450;2023-03-14T15:08:43;0.47;;;0.30;;
38591;SDS011;24356;48.460;11.450;2023-03-14T15:11:16;0.13;;;0.13;;
38591;SDS011;24356;48.460;11.450;2023-03-14T15:13:41;0.75;;;0.30;;
38591;SDS011;24356;48.460;11.450;2023-03-14T15:16:11;0.68;;;0.30;;
38591;SDS011;24356;48.460;11.450;2023-03-14T15:18:38;0.75;;;0.30;;
38591;SDS011;24356;48.460;11.450;2023-03-14T15:21:04;0.40;;;0.30;;
38591;SDS011;24356;48.460;11.450;2023-03-14T15:23:30;0.93;;;0.45;;
38591;SDS011;24356;48.460;11.450;2023-03-14T15:25:56;0.90;;;0.50;;
38591;SDS011;24356;48.460;11.450;2023-03-14T15:28:22;1.23;;;0.70;;
38591;SDS011;24356;48.460;11.450;2023-03-14T15:30:50;0.73;;;0.52;;
38591;SDS011;24356;48.460;11.450;2023-03-14T15:33:17;1.00;;;0.40;;
38591;SDS011;24356;48.460;11.450;2023-03-14T15:35:43;2.70;;;0.65;;
38591;SDS011;24356;48.460;11.450;2023-03-14T15:38:10;0.35;;;0.30;;
38591;SDS011;24356;48.460;11.450;2023-03-14T15:40:37;1.98;;;0.50;;
38591;SDS011;24356;48.460;11.450;2023-03-14T15:43:03;1.15;;;0.60;;
38591;SDS011;24356;48.460;11.450;2023-03-14T15:45:29;1.13;;;0.77;;
38591;SDS011;24356;48.460;11.450;2023-03-14T15:47:55;0.88;;;0.55;;
38591;SDS011;24356;48.460;11.450;2023-03-14T15:50:21;0.85;;;0.63;;
38591;SDS011;24356;48.460;11.450;2023-03-14T15:52:46;2.60;;;0.77;;
38591;SDS011;24356;48.460;11.450;2023-03-14T15:55:13;1.45;;;0.90;;
38591;SDS011;24356;48.460;11.450;2023-03-14T15:57:39;2.65;;;0.57;;